Time,TemperatureF,DewpointF,PressureIn,WindDirection,WindDirectionDegrees,WindSpeedMPH,WindSpeedGustMPH,Humidity,HourlyPrecipIn,Conditions,Clouds,dailyrainin,SoftwareType,DateUTC
2013-04-06 00:04:00,37.0,20.0,-100.00,NNE,30,2.0,4.0,50,0.00,,,-99.99,,2013-04-06 04:04:00,
2013-04-06 00:14:00,37.0,20.0,-100.00,NE,45,1.0,6.0,50,0.00,,,-99.99,,2013-04-06 04:14:00,
2013-04-06 00:23:00,37.0,20.0,-100.00,ENE,60,1.0,3.0,50,0.00,,,-99.99,,2013-04-06 04:23:00,
2013-04-06 00:33:00,37.0,20.0,-100.00,NE,50,2.0,5.0,51,0.00,,,-99.99,,2013-04-06 04:33:00,
2013-04-06 00:42:00,35.0,20.0,-100.00,ENE,60,2.0,3.0,53,0.00,,,-99.99,,2013-04-06 04:42:00,
2013-04-06 00:52:00,35.0,20.0,-100.00,NE,50,1.0,4.0,54,0.00,,,-99.99,,2013-04-06 04:52:00,
2013-04-06 01:02:00,35.0,20.0,-100.00,NE,45,3.0,4.0,54,0.00,,,-99.99,,2013-04-06 05:02:00,
2013-04-06 01:13:00,35.0,20.0,-100.00,NE,45,3.0,4.0,54,0.00,,,-99.99,,2013-04-06 05:13:00,
2013-04-06 01:22:00,35.0,20.0,-100.00,NE,35,3.0,5.0,55,0.00,,,-99.99,,2013-04-06 05:22:00,
2013-04-06 01:33:00,35.0,21.0,-100.00,NE,45,3.0,6.0,56,0.00,,,-99.99,,2013-04-06 05:33:00,
2013-04-06 01:42:00,35.0,21.0,-100.00,NE,40,3.0,6.0,57,0.00,,,-99.99,,2013-04-06 05:42:00,
2013-04-06 01:52:00,35.0,21.0,-100.00,ENE,60,4.0,6.0,57,0.00,,,-99.99,,2013-04-06 05:52:00,
2013-04-06 02:03:00,35.0,21.0,-100.00,ENE,60,4.0,6.0,57,0.00,,,-99.99,,2013-04-06 06:03:00,
2013-04-06 02:12:00,34.0,21.0,-100.00,ENE,60,3.0,6.0,59,0.00,,,-99.99,,2013-04-06 06:12:00,
2013-04-06 02:22:00,34.0,21.0,-100.00,NE,50,3.0,6.0,60,0.00,,,-99.99,,2013-04-06 06:22:00,
2013-04-06 02:33:00,34.0,22.0,-100.00,ENE,65,3.0,7.0,60,0.00,,,-99.99,,2013-04-06 06:33:00,
2013-04-06 02:43:00,33.0,22.0,-100.00,ENE,65,4.0,6.0,61,0.00,,,-99.99,,2013-04-06 06:43:00,
2013-04-06 02:52:00,33.0,21.0,-100.00,ENE,60,4.0,6.0,61,0.00,,,-99.99,,2013-04-06 06:52:00,
2013-04-06 03:03:00,33.0,21.0,-100.00,NE,55,1.0,6.0,62,0.00,,,-99.99,,2013-04-06 07:03:00,
2013-04-06 03:12:00,33.0,21.0,-100.00,ENE,60,2.0,5.0,62,0.00,,,-99.99,,2013-04-06 07:12:00,
2013-04-06 03:22:00,33.0,21.0,-100.00,ENE,60,2.0,6.0,61,0.00,,,-99.99,,2013-04-06 07:22:00,
2013-04-06 03:33:00,33.0,20.0,-100.00,ENE,75,3.0,6.0,59,0.00,,,-99.99,,2013-04-06 07:33:00,
2013-04-06 03:43:00,33.0,20.0,-100.00,ENE,70,3.0,6.0,59,0.00,,,-99.99,,2013-04-06 07:43:00,
2013-04-06 03:52:00,32.0,20.0,-100.00,ENE,75,4.0,6.0,58,0.00,,,-99.99,,2013-04-06 07:52:00,
2013-04-06 04:02:00,32.0,19.0,-100.00,ENE,70,2.0,6.0,58,0.00,,,-99.99,,2013-04-06 08:02:00,
2013-04-06 04:13:00,32.0,19.0,-100.00,East,80,2.0,4.0,58,0.00,,,-99.99,,2013-04-06 08:13:00,
2013-04-06 04:22:00,32.0,19.0,-100.00,ENE,70,1.0,4.0,57,0.00,,,-99.99,,2013-04-06 08:22:00,
2013-04-06 04:32:00,32.0,18.0,-100.00,ENE,60,2.0,4.0,57,0.00,,,-99.99,,2013-04-06 08:32:00,
2013-04-06 04:42:00,32.0,18.0,-100.00,ENE,60,2.0,4.0,57,0.00,,,-99.99,,2013-04-06 08:42:00,
2013-04-06 04:52:00,31.0,17.0,-100.00,ENE,70,2.0,5.0,56,0.00,,,-99.99,,2013-04-06 08:52:00,
2013-04-06 05:02:00,31.0,17.0,-100.00,East,80,3.0,4.0,57,0.00,,,-99.99,,2013-04-06 09:02:00,
2013-04-06 05:12:00,31.0,17.0,-100.00,East,80,3.0,4.0,57,0.00,,,-99.99,,2013-04-06 09:12:00,
2013-04-06 05:22:00,31.0,17.0,-100.00,East,80,2.0,4.0,57,0.00,,,-99.99,,2013-04-06 09:22:00,
2013-04-06 05:33:00,30.0,17.0,-100.00,East,85,1.0,4.0,58,0.00,,,-99.99,,2013-04-06 09:33:00,
2013-04-06 05:43:00,29.0,17.0,-100.00,NW,305,0.0,2.0,59,0.00,,,-99.99,,2013-04-06 09:43:00,
2013-04-06 05:53:00,30.0,16.0,-100.00,East,95,1.0,3.0,57,0.00,,,-99.99,,2013-04-06 09:53:00,
2013-04-06 06:03:00,30.0,16.0,-100.00,East,85,2.0,4.0,55,0.00,,,-99.99,,2013-04-06 10:03:00,
2013-04-06 06:13:00,30.0,17.0,-100.00,ENE,70,2.0,4.0,59,0.00,,,-99.99,,2013-04-06 10:13:00,
2013-04-06 06:23:00,29.0,17.0,-100.00,East,80,1.0,3.0,59,0.00,,,-99.99,,2013-04-06 10:23:00,
2013-04-06 06:33:00,29.0,17.0,-100.00,ENE,75,1.0,4.0,60,0.00,,,-99.99,,2013-04-06 10:33:00,
2013-04-06 06:42:00,29.0,17.0,-100.00,ENE,75,2.0,3.0,59,0.00,,,-99.99,,2013-04-06 10:42:00,
2013-04-06 06:52:00,28.0,17.0,-100.00,NE,55,0.0,2.0,62,0.00,,,-99.99,,2013-04-06 10:52:00,
2013-04-06 07:03:00,29.0,17.0,-100.00,NE,45,0.0,2.0,59,0.00,,,-99.99,,2013-04-06 11:03:00,
2013-04-06 07:12:00,29.0,17.0,-100.00,NW,310,1.0,5.0,61,0.00,,,-99.99,,2013-04-06 11:12:00,
2013-04-06 07:23:00,29.0,17.0,-100.00,WSW,245,1.0,3.0,61,0.00,,,-99.99,,2013-04-06 11:23:00,
2013-04-06 07:33:00,29.0,17.0,-100.00,North,0,1.0,4.0,59,0.00,,,-99.99,,2013-04-06 11:33:00,
2013-04-06 07:43:00,29.0,17.0,-100.00,WSW,255,1.0,4.0,61,0.00,,,-99.99,,2013-04-06 11:43:00,
2013-04-06 07:52:00,29.0,17.0,-100.00,North,10,0.0,3.0,61,0.00,,,-99.99,,2013-04-06 11:52:00,
2013-04-06 08:02:00,29.0,17.0,-100.00,ESE,115,2.0,8.0,59,0.00,,,-99.99,,2013-04-06 12:02:00,
2013-04-06 08:12:00,31.0,16.0,-100.00,ESE,115,1.0,3.0,54,0.00,,,-99.99,,2013-04-06 12:12:00,
2013-04-06 08:22:00,31.0,16.0,-100.00,East,100,1.0,4.0,51,0.00,,,-99.99,,2013-04-06 12:22:00,
2013-04-06 08:33:00,32.0,16.0,-100.00,East,100,1.0,6.0,52,0.00,,,-99.99,,2013-04-06 12:33:00,
2013-04-06 08:43:00,33.0,17.0,-100.00,SE,145,1.0,5.0,51,0.00,,,-99.99,,2013-04-06 12:43:00,
2013-04-06 08:52:00,33.0,17.0,-100.00,SE,130,1.0,3.0,51,0.00,,,-99.99,,2013-04-06 12:52:00,
2013-04-06 09:03:00,34.0,17.0,-100.00,SE,130,2.0,6.0,49,0.00,,,-99.99,,2013-04-06 13:03:00,
2013-04-06 09:13:00,35.0,19.0,-100.00,SSE,150,3.0,6.0,51,0.00,,,-99.99,,2013-04-06 13:13:00,
2013-04-06 09:24:00,35.0,18.0,-100.00,ESE,120,3.0,7.0,48,0.00,,,-99.99,,2013-04-06 13:24:00,
2013-04-06 09:32:00,36.0,18.0,-100.00,SSE,160,2.0,5.0,47,0.00,,,-99.99,,2013-04-06 13:32:00,
2013-04-06 09:43:00,37.0,18.0,-100.00,SSE,165,4.0,6.0,47,0.00,,,-99.99,,2013-04-06 13:43:00,
2013-04-06 09:52:00,37.0,17.0,-100.00,SE,130,6.0,11.0,43,0.00,,,-99.99,,2013-04-06 13:52:00,
2013-04-06 10:04:00,38.0,17.0,-100.00,SSE,150,5.0,7.0,43,0.55,,,-99.99,,2013-04-06 14:04:00,
2013-04-06 10:12:00,38.0,16.0,-100.00,South,170,4.0,9.0,40,0.00,,,-99.99,,2013-04-06 14:12:00,
2013-04-06 10:22:00,39.0,16.0,-100.00,SSE,155,4.0,6.0,39,0.00,,,-99.99,,2013-04-06 14:22:00,
2013-04-06 10:33:00,40.0,17.0,-100.00,SE,140,4.0,9.0,39,0.00,,,-99.99,,2013-04-06 14:33:00,
2013-04-06 10:42:00,40.0,16.0,-100.00,SE,135,4.0,7.0,37,0.00,,,-99.99,,2013-04-06 14:42:00,
2013-04-06 10:52:00,41.0,16.0,-100.00,ESE,115,4.0,7.0,35,0.00,,,-99.99,,2013-04-06 14:52:00,
2013-04-06 11:02:00,41.0,16.0,-100.00,ESE,115,4.0,7.0,35,0.00,,,-99.99,,2013-04-06 15:02:00,
2013-04-06 11:12:00,42.0,17.0,-100.00,South,170,4.0,7.0,35,0.00,,,-99.99,,2013-04-06 15:12:00,
2013-04-06 11:23:00,44.0,17.0,-100.00,SE,130,4.0,9.0,33,0.00,,,-99.99,,2013-04-06 15:23:00,
2013-04-06 11:33:00,43.0,16.0,-100.00,SE,140,4.0,9.0,33,0.00,,,-99.99,,2013-04-06 15:33:00,
2013-04-06 11:43:00,44.0,17.0,-100.00,SE,125,3.0,6.0,32,0.00,,,-99.99,,2013-04-06 15:43:00,
2013-04-06 11:52:00,45.0,16.0,-100.00,South,170,3.0,7.0,30,0.00,,,-99.99,,2013-04-06 15:52:00,
2013-04-06 12:05:00,46.0,16.0,-100.00,SSE,165,2.0,6.0,30,0.00,,,-99.99,,2013-04-06 16:05:00,
2013-04-06 12:17:00,46.0,14.0,-100.00,SE,125,6.0,11.0,27,0.00,,,-99.99,,2013-04-06 16:17:00,
2013-04-06 12:23:00,48.0,17.0,-100.00,ESE,110,3.0,8.0,29,0.00,,,-99.99,,2013-04-06 16:23:00,
2013-04-06 12:33:00,47.0,16.0,-100.00,SE,135,3.0,7.0,28,0.00,,,-99.99,,2013-04-06 16:33:00,
2013-04-06 12:42:00,49.0,15.0,-100.00,South,170,2.0,5.0,26,0.00,,,-99.99,,2013-04-06 16:42:00,
2013-04-06 12:53:00,50.0,18.0,-100.00,SE,130,3.0,7.0,27,0.00,,,-99.99,,2013-04-06 16:53:00,
2013-04-06 13:03:00,50.0,17.0,-100.00,SE,145,4.0,7.0,26,0.00,,,-99.99,,2013-04-06 17:03:00,
2013-04-06 13:12:00,50.0,15.0,-100.00,SE,135,3.0,5.0,24,0.00,,,-99.99,,2013-04-06 17:12:00,
2013-04-06 13:22:00,50.0,15.0,-100.00,ESE,105,1.0,9.0,24,0.00,,,-99.99,,2013-04-06 17:22:00,
2013-04-06 13:33:00,51.0,13.0,-100.00,ESE,120,4.0,7.0,21,0.00,,,-99.99,,2013-04-06 17:33:00,
2013-04-06 13:42:00,51.0,14.0,-100.00,SSE,160,4.0,10.0,22,0.00,,,-99.99,,2013-04-06 17:42:00,
2013-04-06 13:52:00,51.0,15.0,-100.00,South,190,6.0,9.0,23,0.00,,,-99.99,,2013-04-06 17:52:00,
2013-04-06 14:03:00,52.0,12.0,-100.00,SE,135,3.0,8.0,20,0.00,,,-99.99,,2013-04-06 18:03:00,
2013-04-06 14:12:00,53.0,14.0,-100.00,SSE,165,4.0,7.0,21,0.00,,,-99.99,,2013-04-06 18:12:00,
2013-04-06 14:23:00,53.0,16.0,-100.00,South,180,4.0,7.0,22,0.00,,,-99.99,,2013-04-06 18:23:00,
2013-04-06 14:32:00,54.0,17.0,-100.00,South,175,6.0,9.0,23,0.00,,,-99.99,,2013-04-06 18:32:00,
2013-04-06 14:42:00,53.0,15.0,-100.00,South,170,4.0,6.0,21,0.00,,,-99.99,,2013-04-06 18:42:00,
2013-04-06 14:52:00,54.0,16.0,-100.00,SSE,165,4.0,6.0,22,0.00,,,-99.99,,2013-04-06 18:52:00,
2013-04-06 15:03:00,54.0,15.0,-100.00,ESE,115,3.0,7.0,21,0.00,,,-99.99,,2013-04-06 19:03:00,
2013-04-06 15:12:00,54.0,13.0,-100.00,South,175,2.0,7.0,19,0.00,,,-99.99,,2013-04-06 19:12:00,
2013-04-06 15:23:00,55.0,14.0,-100.00,SSE,160,1.0,6.0,19,0.00,,,-99.99,,2013-04-06 19:23:00,
2013-04-06 15:33:00,54.0,11.0,-100.00,SE,125,3.0,5.0,17,0.00,,,-99.99,,2013-04-06 19:33:00,
2013-04-06 15:42:00,55.0,14.0,-100.00,SE,125,2.0,3.0,19,0.00,,,-99.99,,2013-04-06 19:42:00,
2013-04-06 15:53:00,56.0,15.0,-100.00,SSE,150,3.0,5.0,20,0.00,,,-99.99,,2013-04-06 19:53:00,
2013-04-06 16:03:00,55.0,11.0,-100.00,SE,125,2.0,6.0,16,0.00,,,-99.99,,2013-04-06 20:03:00,
2013-04-06 16:12:00,57.0,16.0,-100.00,SSE,150,2.0,4.0,20,0.00,,,-99.99,,2013-04-06 20:12:00,
2013-04-06 16:22:00,57.0,12.0,-100.00,SE,130,2.0,4.0,16,0.00,,,-99.99,,2013-04-06 20:22:00,
2013-04-06 16:32:00,56.0,14.0,-100.00,SE,125,4.0,8.0,18,0.00,,,-99.99,,2013-04-06 20:32:00,
2013-04-06 16:42:00,56.0,13.0,-100.00,SSE,155,3.0,6.0,17,0.00,,,-99.99,,2013-04-06 20:42:00,
2013-04-06 16:52:00,57.0,13.0,-100.00,ESE,120,4.0,6.0,17,0.00,,,-99.99,,2013-04-06 20:52:00,
2013-04-06 17:02:00,57.0,15.0,-100.00,SSE,150,3.0,5.0,18,0.00,,,-99.99,,2013-04-06 21:02:00,
2013-04-06 17:13:00,57.0,15.0,-100.00,SE,145,3.0,7.0,19,0.00,,,-99.99,,2013-04-06 21:13:00,
2013-04-06 17:22:00,56.0,12.0,-100.00,SSE,160,2.0,5.0,16,0.00,,,-99.99,,2013-04-06 21:22:00,
2013-04-06 17:33:00,57.0,15.0,-100.00,SSE,165,4.0,6.0,19,0.00,,,-99.99,,2013-04-06 21:33:00,
2013-04-06 17:43:00,56.0,16.0,-100.00,SE,145,4.0,6.0,20,0.00,,,-99.99,,2013-04-06 21:43:00,
2013-04-06 17:52:00,56.0,15.0,-100.00,SSE,150,4.0,6.0,19,0.00,,,-99.99,,2013-04-06 21:52:00,
2013-04-06 18:03:00,57.0,15.0,-100.00,SE,145,3.0,7.0,19,0.00,,,-99.99,,2013-04-06 22:03:00,
2013-04-06 18:13:00,57.0,17.0,-100.00,SSE,150,3.0,6.0,20,0.00,,,-99.99,,2013-04-06 22:13:00,
2013-04-06 18:23:00,57.0,15.0,-100.00,SE,135,2.0,6.0,18,0.00,,,-99.99,,2013-04-06 22:23:00,
2013-04-06 18:35:00,57.0,15.0,-100.00,SE,140,3.0,6.0,18,0.00,,,-99.99,,2013-04-06 22:35:00,
2013-04-06 18:43:00,58.0,15.0,-100.00,SE,125,2.0,6.0,18,0.00,,,-99.99,,2013-04-06 22:43:00,
2013-04-06 18:53:00,57.0,15.0,-100.00,ESE,120,2.0,6.0,19,0.00,,,-99.99,,2013-04-06 22:53:00,
2013-04-06 19:03:00,57.0,17.0,-100.00,SE,125,2.0,4.0,20,0.00,,,-99.99,,2013-04-06 23:03:00,
2013-04-06 19:14:00,58.0,17.0,-100.00,SE,125,2.0,4.0,20,0.00,,,-99.99,,2013-04-06 23:14:00,
2013-04-06 19:23:00,57.0,15.0,-100.00,SE,130,2.0,4.0,18,0.00,,,-99.99,,2013-04-06 23:23:00,
2013-04-06 19:34:00,57.0,18.0,-100.00,SE,130,2.0,4.0,21,0.00,,,-99.99,,2013-04-06 23:34:00,
2013-04-06 19:42:00,56.0,17.0,-100.00,SE,135,3.0,5.0,20,0.00,,,-99.99,,2013-04-06 23:42:00,
2013-04-06 19:52:00,56.0,19.0,-100.00,SSE,150,2.0,5.0,23,0.00,,,-99.99,,2013-04-06 23:52:00,
2013-04-06 20:02:00,55.0,19.0,-100.00,SSE,150,2.0,4.0,24,0.00,,,-99.99,,2013-04-07 00:02:00,
2013-04-06 20:13:00,55.0,18.0,-100.00,SE,145,2.0,4.0,22,0.00,,,-99.99,,2013-04-07 00:13:00,
2013-04-06 20:22:00,55.0,18.0,-100.00,SE,140,1.0,4.0,23,0.00,,,-99.99,,2013-04-07 00:22:00,
2013-04-06 20:33:00,55.0,20.0,-100.00,SE,135,2.0,3.0,24,0.00,,,-99.99,,2013-04-07 00:33:00,
2013-04-06 20:43:00,54.0,18.0,-100.00,SE,135,2.0,3.0,23,0.00,,,-99.99,,2013-04-07 00:43:00,
2013-04-06 20:52:00,54.0,18.0,-100.00,SE,135,2.0,4.0,23,0.00,,,-99.99,,2013-04-07 00:52:00,
2013-04-06 21:02:00,55.0,18.0,-100.00,SE,140,2.0,4.0,23,0.00,,,-99.99,,2013-04-07 01:02:00,
2013-04-06 21:12:00,55.0,18.0,-100.00,SE,140,3.0,5.0,23,0.00,,,-99.99,,2013-04-07 01:12:00,
2013-04-06 21:23:00,54.0,18.0,-100.00,SE,145,2.0,7.0,23,0.00,,,-99.99,,2013-04-07 01:23:00,
2013-04-06 21:33:00,54.0,18.0,-100.00,SSE,150,2.0,4.0,24,0.00,,,-99.99,,2013-04-07 01:33:00,
2013-04-06 21:43:00,54.0,18.0,-100.00,SE,145,2.0,4.0,23,0.00,,,-99.99,,2013-04-07 01:43:00,
2013-04-06 21:52:00,54.0,18.0,-100.00,SE,145,2.0,4.0,23,0.00,,,-99.99,,2013-04-07 01:52:00,
2013-04-06 22:03:00,55.0,17.0,-100.00,SE,145,2.0,4.0,22,0.00,,,-99.99,,2013-04-07 02:03:00,
2013-04-06 22:12:00,54.0,18.0,-100.00,SE,135,3.0,4.0,23,0.00,,,-99.99,,2013-04-07 02:12:00,
2013-04-06 22:23:00,55.0,17.0,-100.00,SE,135,3.0,5.0,22,0.00,,,-99.99,,2013-04-07 02:23:00,
2013-04-06 22:33:00,54.0,19.0,-100.00,SSE,155,2.0,3.0,25,0.00,,,-99.99,,2013-04-07 02:33:00,
2013-04-06 22:43:00,54.0,19.0,-100.00,SSE,150,2.0,3.0,25,0.00,,,-99.99,,2013-04-07 02:43:00,
2013-04-06 22:52:00,53.0,19.0,-100.00,SSE,150,3.0,4.0,25,0.00,,,-99.99,,2013-04-07 02:52:00,
2013-04-06 23:02:00,53.0,20.0,-100.00,SE,145,2.0,4.0,27,0.00,,,-99.99,,2013-04-07 03:02:00,
2013-04-06 23:12:00,53.0,19.0,-100.00,SSE,155,1.0,3.0,26,0.00,,,-99.99,,2013-04-07 03:12:00,
2013-04-06 23:22:00,51.0,21.0,-100.00,South,170,1.0,2.0,29,0.00,,,-99.99,,2013-04-07 03:22:00,
2013-04-06 23:35:00,51.0,21.0,-100.00,South,180,1.0,2.0,30,0.00,,,-99.99,,2013-04-07 03:35:00,
2013-04-06 23:43:00,50.0,22.0,-100.00,SSE,165,1.0,4.0,33,0.00,,,-99.99,,2013-04-07 03:43:00,
2013-04-06 23:53:00,51.0,22.0,-100.00,SSE,165,2.0,3.0,32,0.00,,,-99.99,,2013-04-07 03:53:00,